Time;durP1;ratioP1;P1;durP2;ratioP2;P2;SDS_P1;SDS_P2;PMS_P1;PMS_P2;Temp;Humidity;BMP_temperature;BMP_pressure;BME280_temperature;BME280_humidity;BME280_pressure;Samples;Min_cycle;Max_cycle;Signal;HPM_P1;HPM_P2
2022/08/23 00:00:42;;;;;;;1.60;1.50;;;27.30;39.60;;;;;;5150169;27;45198;-75
2022/08/23 00:03:09;;;;;;;1.70;1.60;;;27.20;39.60;;;;;;5150043;27;45311;-75
2022/08/23 00:05:36;;;;;;;2.08;1.80;;;27.20;39.60;;;;;;5150272;27;45433;-75
2022/08/23 00:08:03;;;;;;;2.28;1.90;;;27.20;39.70;;;;;;5167019;27;46390;-75
2022/08/23 00:10:31;;;;;;;2.00;1.83;;;27.20;39.70;;;;;;5170788;27;45316;-75
2022/08/23 00:12:58;;;;;;;1.60;1.50;;;27.20;39.70;;;;;;5171028;27;45186;-75
2022/08/23 00:15:25;;;;;;;1.85;1.75;;;27.20;39.70;;;;;;5171052;27;45173;-75
2022/08/23 00:17:52;;;;;;;1.52;1.42;;;27.20;39.70;;;;;;5170699;27;47535;-75
2022/08/23 00:20:19;;;;;;;1.85;1.40;;;27.10;39.70;;;;;;5168534;27;45354;-75
2022/08/23 00:22:46;;;;;;;1.70;1.60;;;27.10;39.80;;;;;;5170621;27;45315;-75
2022/08/23 00:25:14;;;;;;;1.60;1.50;;;27.10;39.70;;;;;;5170926;27;45158;-75
2022/08/23 00:27:42;;;;;;;2.05;1.85;;;27.10;39.80;;;;;;5170435;27;45886;-74
2022/08/23 00:30:11;;;;;;;1.52;1.42;;;27.10;39.80;;;;;;5163550;27;45306;-75
2022/08/23 00:32:38;;;;;;;1.80;1.70;;;27.10;39.80;;;;;;5149698;27;45102;-75
2022/08/23 00:35:05;;;;;;;1.95;1.80;;;27.10;39.90;;;;;;5149674;27;45401;-75
2022/08/23 00:37:32;;;;;;;1.80;1.70;;;27.00;39.80;;;;;;5149134;27;45579;-75
2022/08/23 00:39:59;;;;;;;1.65;1.55;;;27.00;39.90;;;;;;5149318;27;45255;-75
2022/08/23 00:48:00;;;;;;;1.85;1.75;;;27.00;40.00;;;;;;5146514;27;45129;-75
2022/08/23 00:50:34;;;;;;;1.70;1.60;;;27.00;40.00;;;;;;5149220;27;45294;-74
2022/08/23 00:53:04;;;;;;;1.80;1.70;;;26.90;39.90;;;;;;5149316;27;45157;-75
2022/08/23 00:55:31;;;;;;;1.80;1.70;;;26.90;40.00;;;;;;5149412;27;45227;-74
2022/08/23 00:57:58;;;;;;;1.58;1.48;;;26.90;40.10;;;;;;5148285;27;45487;-75
2022/08/23 01:00:26;;;;;;;1.70;1.60;;;26.90;40.10;;;;;;5149135;27;45244;-75
2022/08/23 01:02:53;;;;;;;1.90;1.70;;;26.90;40.10;;;;;;5149148;27;45318;-75
2022/08/23 01:05:20;;;;;;;1.70;1.60;;;26.90;40.20;;;;;;5149305;27;45313;-75
2022/08/23 01:07:49;;;;;;;1.85;1.65;;;26.80;40.00;;;;;;5163791;27;46648;-74
2022/08/23 01:10:20;;;;;;;1.90;1.60;;;26.80;40.10;;;;;;5169919;27;45286;-75
2022/08/23 01:12:50;;;;;;;1.60;1.48;;;26.80;40.10;;;;;;5169985;27;45272;-75
2022/08/23 01:15:20;;;;;;;2.10;1.90;;;26.80;40.20;;;;;;5170162;27;45316;-75
2022/08/23 01:17:50;;;;;;;1.92;1.80;;;26.70;40.20;;;;;;5169758;27;45278;-75
2022/08/23 01:20:18;;;;;;;1.90;1.60;;;26.70;40.20;;;;;;5167665;27;45329;-75
2022/08/23 01:22:48;;;;;;;1.80;1.70;;;26.70;40.30;;;;;;5169847;27;45304;-74
2022/08/23 01:25:17;;;;;;;2.25;1.60;;;26.70;40.40;;;;;;5170116;27;45264;-75
2022/08/23 01:27:44;;;;;;;1.80;1.70;;;26.60;40.30;;;;;;5169689;27;45380;-75
2022/08/23 01:30:12;;;;;;;1.80;1.70;;;26.60;40.40;;;;;;5162453;27;45410;-75
2022/08/23 01:32:43;;;;;;;1.65;1.55;;;26.60;40.40;;;;;;5148796;27;45175;-75
2022/08/23 01:35:10;;;;;;;1.83;1.73;;;26.60;40.50;;;;;;5148832;27;45415;-75
2022/08/23 01:37:36;;;;;;;1.67;1.58;;;26.60;40.50;;;;;;5148107;27;46647;-75
2022/08/23 01:40:04;;;;;;;2.35;1.50;;;26.50;40.40;;;;;;5148622;27;45306;-75
2022/08/23 01:42:32;;;;;;;1.92;1.70;;;26.50;40.40;;;;;;5148696;27;45180;-75
2022/08/23 01:45:00;;;;;;;2.17;1.90;;;26.50;40.60;;;;;;5148869;27;45461;-75
2022/08/23 01:47:27;;;;;;;2.10;1.90;;;26.40;40.50;;;;;;5148749;27;45176;-74
2022/08/23 01:49:53;;;;;;;1.67;1.58;;;26.40;40.50;;;;;;5147934;27;45122;-74
2022/08/23 01:52:20;;;;;;;1.90;1.77;;;26.40;40.60;;;;;;5148098;27;45181;-74
2022/08/23 01:54:47;;;;;;;2.92;1.90;;;26.40;40.60;;;;;;5148599;27;45326;-75
2022/08/23 01:57:14;;;;;;;1.70;1.60;;;26.40;40.60;;;;;;5148193;27;46478;-75
2022/08/23 01:59:42;;;;;;;1.60;1.50;;;26.40;40.60;;;;;;5148259;27;45308;-75
2022/08/23 02:02:09;;;;;;;1.90;1.80;;;26.40;40.70;;;;;;5148415;27;45137;-75
2022/08/23 02:04:36;;;;;;;1.80;1.50;;;26.40;40.80;;;;;;5150598;27;45414;-75
2022/08/23 02:07:02;;;;;;;1.92;1.58;;;26.30;40.60;;;;;;5160252;27;45385;-75
2022/08/23 02:09:30;;;;;;;1.67;1.55;;;26.30;40.70;;;;;;5172764;27;45266;-75
2022/08/23 02:11:57;;;;;;;1.38;1.27;;;26.30;40.80;;;;;;5173008;27;45199;-75
2022/08/23 02:14:24;;;;;;;1.63;1.52;;;26.20;40.70;;;;;;5173159;27;45164;-74
2022/08/23 02:16:53;;;;;;;1.80;1.70;;;26.20;40.80;;;;;;5172562;27;46414;-75
2022/08/23 02:19:19;;;;;;;1.88;1.75;;;26.30;40.90;;;;;;5172604;27;45274;-75
2022/08/23 02:21:46;;;;;;;1.60;1.50;;;26.20;40.80;;;;;;5170875;27;45276;-75
2022/08/23 02:24:20;;;;;;;1.75;1.65;;;26.20;40.80;;;;;;5173230;27;45223;-75
2022/08/23 02:26:48;;;;;;;1.80;1.70;;;26.20;40.80;;;;;;5172503;27;46329;-74
2022/08/23 02:29:15;;;;;;;2.10;1.70;;;26.20;40.90;;;;;;5172787;27;45258;-75
2022/08/23 02:31:42;;;;;;;1.80;1.60;;;26.20;40.90;;;;;;5152284;27;45305;-75
2022/08/23 02:34:11;;;;;;;1.77;1.67;;;26.10;40.90;;;;;;5151580;27;45626;-75
2022/08/23 02:36:38;;;;;;;1.70;1.60;;;26.10;41.50;;;;;;5151201;27;45737;-74
2022/08/23 02:39:05;;;;;;;1.70;1.60;;;26.10;41.00;;;;;;5150782;27;45276;-75
2022/08/23 02:41:32;;;;;;;1.80;1.70;;;26.10;41.00;;;;;;5151426;27;45342;-75
2022/08/23 02:43:59;;;;;;;1.98;1.77;;;26.10;41.00;;;;;;5151455;27;45242;-75
2022/08/23 02:46:26;;;;;;;1.90;1.80;;;26.00;40.90;;;;;;5151081;27;46661;-74
2022/08/23 02:48:52;;;;;;;2.58;1.60;;;26.00;41.10;;;;;;5151124;27;45196;-75
2022/08/23 02:51:21;;;;;;;1.75;1.65;;;26.00;41.00;;;;;;5142631;27;45215;-74
2022/08/23 02:53:47;;;;;;;1.77;1.60;;;26.00;41.10;;;;;;5151396;27;45295;-75
2022/08/23 02:56:14;;;;;;;1.90;1.73;;;26.00;41.20;;;;;;5150881;27;45247;-75
2022/08/23 02:58:42;;;;;;;1.80;1.70;;;26.00;41.20;;;;;;5150969;27;45241;-75
2022/08/23 03:01:15;;;;;;;1.73;1.63;;;26.00;41.20;;;;;;5151628;27;45142;-75
2022/08/23 03:03:41;;;;;;;2.20;1.90;;;26.00;41.30;;;;;;5151190;27;45405;-75
2022/08/23 03:06:08;;;;;;;1.70;1.60;;;26.00;41.20;;;;;;5151440;27;46340;-75
2022/08/23 03:08:36;;;;;;;1.90;1.80;;;25.90;41.20;;;;;;5171846;27;45295;-75
2022/08/23 03:11:10;;;;;;;2.15;1.80;;;25.90;41.30;;;;;;5172293;27;45254;-75
2022/08/23 03:13:37;;;;;;;1.88;1.75;;;25.90;41.30;;;;;;5172130;27;45556;-75
2022/08/23 03:16:05;;;;;;;1.67;1.50;;;25.90;41.90;;;;;;5170340;27;45226;-75
2022/08/23 03:18:31;;;;;;;1.52;1.42;;;25.90;41.40;;;;;;5171630;27;45306;-75
2022/08/23 03:20:58;;;;;;;2.63;1.65;;;25.80;41.30;;;;;;5169807;27;45403;-75
2022/08/23 03:23:25;;;;;;;2.53;1.60;;;25.80;41.50;;;;;;5172065;27;45168;-75
2022/08/23 03:25:54;;;;;;;1.90;1.80;;;25.80;41.40;;;;;;5171641;27;47023;-75
2022/08/23 03:28:20;;;;;;;1.73;1.63;;;25.80;41.30;;;;;;5170828;27;45316;-75
2022/08/23 03:30:47;;;;;;;1.90;1.80;;;25.80;41.40;;;;;;5159207;27;45226;-75
2022/08/23 03:33:14;;;;;;;1.80;1.70;;;25.70;41.30;;;;;;5150647;27;45178;-74
2022/08/23 03:35:41;;;;;;;1.67;1.55;;;25.70;41.30;;;;;;5150222;27;46511;-75
2022/08/23 03:38:08;;;;;;;1.95;1.83;;;25.70;41.50;;;;;;5150166;27;45325;-75
2022/08/23 03:40:35;;;;;;;2.47;1.80;;;25.70;41.50;;;;;;5150380;27;45305;-75
2022/08/23 03:43:03;;;;;;;1.73;1.63;;;25.70;41.60;;;;;;5150439;27;45367;-75
2022/08/23 03:45:30;;;;;;;1.80;1.70;;;25.60;41.50;;;;;;5150253;27;45510;-75
2022/08/23 03:47:57;;;;;;;1.98;1.80;;;25.60;41.60;;;;;;5150236;27;45142;-75
2022/08/23 03:50:24;;;;;;;2.08;1.88;;;25.70;41.50;;;;;;5150138;27;45294;-75
2022/08/23 03:52:50;;;;;;;1.83;1.73;;;25.60;41.60;;;;;;5150383;27;45344;-75
2022/08/23 03:55:17;;;;;;;2.03;1.80;;;25.60;41.50;;;;;;5150096;27;46397;-75
2022/08/23 03:57:44;;;;;;;1.88;1.70;;;25.60;41.60;;;;;;5149841;27;45198;-75
2022/08/23 04:00:14;;;;;;;1.65;1.55;;;25.50;41.70;;;;;;5150515;27;45319;-75
2022/08/23 04:02:41;;;;;;;1.90;1.80;;;25.60;41.70;;;;;;5150183;27;45372;-75
2022/08/23 04:05:09;;;;;;;3.17;1.77;;;25.50;41.60;;;;;;5149929;27;46413;-75
2022/08/23 04:07:37;;;;;;;2.17;2.08;;;25.50;41.80;;;;;;5163170;27;45251;-75
2022/08/23 04:10:04;;;;;;;1.90;1.75;;;25.50;41.70;;;;;;5171071;27;45297;-75
2022/08/23 04:12:31;;;;;;;1.90;1.80;;;25.50;41.70;;;;;;5171219;27;45228;-74
2022/08/23 04:14:58;;;;;;;1.90;1.80;;;25.50;41.70;;;;;;5169972;27;45352;-75
2022/08/23 04:17:26;;;;;;;2.00;1.77;;;25.50;41.80;;;;;;5170624;27;45145;-75
2022/08/23 04:19:53;;;;;;;1.60;1.50;;;25.50;41.80;;;;;;5170097;27;45261;-75
2022/08/23 04:22:20;;;;;;;2.20;2.00;;;25.50;41.80;;;;;;5169994;27;45253;-75
2022/08/23 04:24:47;;;;;;;1.70;1.60;;;25.40;41.70;;;;;;5170760;27;45316;-75
2022/08/23 04:27:14;;;;;;;1.83;1.73;;;25.40;41.80;;;;;;5170151;27;45211;-75
2022/08/23 04:29:40;;;;;;;1.90;1.60;;;25.40;41.80;;;;;;5170741;27;45237;-75
2022/08/23 04:32:08;;;;;;;1.73;1.63;;;25.40;41.90;;;;;;5168093;27;45320;-75
2022/08/23 04:34:38;;;;;;;2.53;1.67;;;25.40;41.90;;;;;;5170369;27;46571;-75
2022/08/23 04:37:05;;;;;;;1.50;1.40;;;25.30;41.80;;;;;;5170137;27;45227;-75
2022/08/23 04:42:16;;;;;;;2.08;1.88;;;25.30;41.80;;;;;;5170568;27;45194;-75
2022/08/23 04:42:18;;;;;;;2.00;1.85;;;25.30;41.90;;;;;;5170384;27;45331;-74
2022/08/23 04:44:45;;;;;;;1.90;1.73;;;25.30;42.10;;;;;;5170234;27;46347;-75
2022/08/23 04:47:11;;;;;;;2.50;1.90;;;25.20;41.90;;;;;;5170261;27;45397;-75
2022/08/23 04:49:40;;;;;;;1.85;1.75;;;25.20;42.30;;;;;;5170263;27;45168;-75
2022/08/23 04:52:06;;;;;;;2.13;1.92;;;25.20;42.10;;;;;;5170474;27;45477;-75
2022/08/23 04:54:33;;;;;;;2.03;1.80;;;25.20;42.10;;;;;;5170174;27;45470;-75
2022/08/23 04:57:00;;;;;;;1.92;1.83;;;25.20;42.10;;;;;;5170144;27;45222;-75
2022/08/23 04:59:27;;;;;;;1.88;1.77;;;25.20;42.10;;;;;;5170327;27;45361;-75
2022/08/23 05:01:54;;;;;;;2.00;1.90;;;25.20;42.20;;;;;;5170558;27;45131;-75
2022/08/23 05:04:20;;;;;;;1.98;1.88;;;25.10;42.10;;;;;;5169657;27;45604;-74
2022/08/23 05:06:50;;;;;;;2.40;2.20;;;25.10;42.20;;;;;;5162878;27;45181;-75
2022/08/23 05:09:17;;;;;;;1.60;1.50;;;25.00;42.10;;;;;;5149053;27;45428;-75
2022/08/23 05:11:44;;;;;;;1.80;1.70;;;25.00;42.20;;;;;;5149319;27;45123;-75
2022/08/23 05:14:11;;;;;;;2.17;1.95;;;25.00;42.30;;;;;;5148747;27;46387;-75
2022/08/23 05:16:38;;;;;;;1.95;1.85;;;25.00;42.40;;;;;;5148838;27;45176;-75
2022/08/23 05:19:05;;;;;;;2.10;1.40;;;25.00;42.30;;;;;;5148805;27;45371;-75
2022/08/23 05:21:31;;;;;;;1.70;1.60;;;25.00;42.40;;;;;;5150873;27;45485;-75
2022/08/23 05:24:00;;;;;;;2.17;1.98;;;25.00;42.40;;;;;;5148686;27;47238;-75
2022/08/23 05:26:26;;;;;;;1.85;1.67;;;25.00;42.60;;;;;;5148825;27;45226;-75
2022/08/23 05:28:53;;;;;;;2.17;1.98;;;25.00;42.50;;;;;;5148738;27;45247;-75
2022/08/23 05:31:21;;;;;;;2.10;1.90;;;25.00;42.30;;;;;;5166100;27;45399;-75
2022/08/23 05:33:48;;;;;;;1.77;1.67;;;25.00;42.40;;;;;;5169619;27;46413;-75
2022/08/23 05:36:15;;;;;;;1.80;1.70;;;24.90;42.50;;;;;;5169498;27;45149;-75
2022/08/23 05:38:42;;;;;;;2.35;1.95;;;24.90;42.40;;;;;;5170543;27;45133;-75
2022/08/23 05:41:10;;;;;;;2.20;2.00;;;24.90;42.60;;;;;;5173868;27;45200;-75
2022/08/23 05:43:37;;;;;;;2.10;1.90;;;24.90;42.60;;;;;;5173248;27;47839;-75
2022/08/23 05:46:06;;;;;;;2.20;1.80;;;24.90;42.60;;;;;;5173388;27;45285;-75
2022/08/23 05:48:33;;;;;;;1.92;1.73;;;24.90;42.50;;;;;;5173401;27;45198;-75
2022/08/23 05:51:11;;;;;;;2.22;1.80;;;24.90;42.80;;;;;;5173202;27;45458;-75
2022/08/23 05:53:38;;;;;;;2.00;1.90;;;24.80;42.60;;;;;;5173126;27;47534;-73
2022/08/23 05:56:19;;;;;;;2.60;1.70;;;24.90;42.70;;;;;;5172283;27;45285;-75
2022/08/23 05:58:46;;;;;;;2.22;2.03;;;24.80;42.70;;;;;;5172688;27;45354;-75
2022/08/23 06:01:13;;;;;;;1.83;1.73;;;24.90;42.70;;;;;;5172925;27;45262;-75
2022/08/23 06:03:40;;;;;;;2.00;1.83;;;24.90;42.70;;;;;;5172881;27;46966;-75
2022/08/23 06:06:07;;;;;;;2.83;1.98;;;24.90;42.60;;;;;;5172533;27;45194;-75
2022/08/23 06:08:34;;;;;;;1.88;1.77;;;24.90;42.60;;;;;;5151731;27;45266;-75
2022/08/23 06:11:02;;;;;;;2.20;2.00;;;24.90;42.60;;;;;;5152081;27;45257;-75
2022/08/23 06:13:30;;;;;;;2.05;1.95;;;24.90;42.50;;;;;;5151668;27;45772;-75
2022/08/23 06:15:58;;;;;;;2.55;2.00;;;25.00;42.50;;;;;;5151532;27;45235;-75
2022/08/23 06:18:25;;;;;;;2.45;2.08;;;24.90;42.50;;;;;;5151626;27;45176;-75
2022/08/23 06:21:00;;;;;;;1.83;1.73;;;24.90;42.60;;;;;;5153674;27;45306;-75
2022/08/23 06:23:27;;;;;;;2.03;1.83;;;24.90;42.60;;;;;;5151479;27;46490;-75
2022/08/23 06:25:54;;;;;;;2.05;1.85;;;24.90;42.60;;;;;;5151627;27;45296;-75
2022/08/23 06:28:21;;;;;;;1.80;1.70;;;24.90;42.60;;;;;;5151753;27;45178;-75
2022/08/23 06:30:49;;;;;;;2.47;1.65;;;24.90;42.60;;;;;;5164262;27;45172;-75
2022/08/23 06:33:16;;;;;;;3.17;1.85;;;24.90;42.50;;;;;;5172405;27;46394;-75
2022/08/23 06:35:46;;;;;;;2.33;1.85;;;25.00;42.40;;;;;;5172355;27;45377;-75
2022/08/23 06:38:13;;;;;;;1.88;1.77;;;25.00;42.50;;;;;;5172184;27;45244;-75
2022/08/23 06:40:40;;;;;;;1.80;1.70;;;25.00;42.50;;;;;;5172678;27;45291;-75
2022/08/23 06:43:07;;;;;;;2.03;1.85;;;25.00;42.50;;;;;;5172215;27;46407;-75
2022/08/23 06:45:34;;;;;;;2.28;2.08;;;25.00;42.40;;;;;;5171931;27;45408;-75
2022/08/23 06:48:02;;;;;;;2.13;1.92;;;25.00;43.20;;;;;;5171763;27;45313;-75
2022/08/23 06:50:29;;;;;;;2.42;1.92;;;25.00;42.80;;;;;;5171747;27;45206;-76
2022/08/23 06:52:56;;;;;;;4.90;2.20;;;25.00;43.10;;;;;;5170662;27;46333;-75
2022/08/23 06:55:23;;;;;;;2.40;2.20;;;25.00;43.40;;;;;;5172182;27;45253;-75
2022/08/23 06:57:49;;;;;;;2.75;2.13;;;25.00;43.70;;;;;;5171941;27;45434;-75
2022/08/23 07:00:16;;;;;;;3.67;2.20;;;25.00;43.90;;;;;;5172224;27;45278;-75
2022/08/23 07:02:43;;;;;;;3.20;2.30;;;25.10;43.70;;;;;;5171730;27;46340;-74
2022/08/23 07:05:11;;;;;;;2.58;2.13;;;25.00;43.70;;;;;;5171857;27;45268;-75
2022/08/23 07:07:38;;;;;;;2.67;2.22;;;25.10;43.70;;;;;;5158234;27;45299;-75
2022/08/23 07:10:06;;;;;;;2.55;2.15;;;25.10;43.70;;;;;;5150988;27;45477;-75
2022/08/23 07:12:33;;;;;;;2.97;2.35;;;25.10;43.90;;;;;;5150548;27;46314;-75
2022/08/23 07:15:00;;;;;;;2.45;2.25;;;25.10;43.80;;;;;;5150782;27;45205;-75
2022/08/23 07:17:26;;;;;;;2.53;2.30;;;25.10;44.00;;;;;;5150571;27;45407;-75
2022/08/23 07:19:53;;;;;;;2.42;1.92;;;25.10;44.00;;;;;;5150963;27;45373;-75
2022/08/23 07:22:23;;;;;;;2.60;2.40;;;25.10;44.00;;;;;;5170819;27;45454;-75
2022/08/23 07:24:50;;;;;;;2.85;2.10;;;25.20;44.00;;;;;;5171677;27;45212;-75
2022/08/23 07:27:17;;;;;;;2.42;2.22;;;25.20;44.20;;;;;;5171678;27;45322;-75
2022/08/23 07:29:43;;;;;;;2.85;2.53;;;25.20;44.00;;;;;;5168859;27;45279;-76
2022/08/23 07:32:10;;;;;;;2.45;2.25;;;25.20;44.40;;;;;;5150522;27;46485;-74
2022/08/23 07:34:37;;;;;;;2.78;2.58;;;25.20;44.40;;;;;;5149615;27;45208;-75
2022/08/23 07:37:04;;;;;;;4.03;2.63;;;25.20;44.40;;;;;;5150209;27;45204;-75
2022/08/23 07:39:32;;;;;;;2.58;2.38;;;25.20;44.30;;;;;;5150739;27;45525;-76
2022/08/23 07:42:00;;;;;;;2.55;2.35;;;25.30;44.40;;;;;;5150208;27;45465;-75
2022/08/23 07:44:26;;;;;;;2.58;2.38;;;25.30;44.00;;;;;;5149973;27;45426;-75
2022/08/23 07:46:53;;;;;;;2.78;2.50;;;25.30;44.00;;;;;;5150375;27;45323;-75
2022/08/23 07:49:20;;;;;;;2.33;2.13;;;25.30;44.20;;;;;;5150302;27;45181;-75
2022/08/23 07:51:50;;;;;;;2.80;2.50;;;25.30;44.10;;;;;;5149497;27;45342;-76
2022/08/23 07:54:18;;;;;;;2.50;2.30;;;25.30;44.10;;;;;;5149886;27;45315;-76
2022/08/23 07:56:46;;;;;;;2.35;2.15;;;25.30;44.10;;;;;;5149969;27;45255;-76
2022/08/23 07:59:13;;;;;;;4.38;2.42;;;25.30;44.10;;;;;;5150199;27;45371;-75
2022/08/23 08:01:41;;;;;;;3.05;2.30;;;25.30;44.10;;;;;;5149075;27;46331;-76
2022/08/23 08:04:08;;;;;;;2.60;2.30;;;25.30;44.70;;;;;;5149944;27;45389;-75
2022/08/23 08:06:38;;;;;;;2.35;2.03;;;25.40;44.30;;;;;;5152246;27;45217;-74
2022/08/23 08:09:05;;;;;;;3.22;2.38;;;25.40;44.20;;;;;;5171238;27;45295;-74
2022/08/23 08:11:32;;;;;;;2.80;2.20;;;25.40;45.00;;;;;;5170615;27;45401;-75
2022/08/23 08:14:01;;;;;;;3.50;2.47;;;25.40;45.20;;;;;;5170535;27;45771;-75
2022/08/23 08:16:30;;;;;;;2.85;2.60;;;25.40;45.10;;;;;;5170905;27;45252;-74
2022/08/23 08:18:58;;;;;;;3.75;2.40;;;25.40;45.90;;;;;;5170905;27;45300;-75
2022/08/23 08:21:25;;;;;;;3.22;2.45;;;25.40;46.10;;;;;;5167907;27;46864;-76
2022/08/23 08:23:52;;;;;;;3.33;2.70;;;25.40;46.00;;;;;;5169979;27;45293;-75
2022/08/23 08:26:19;;;;;;;3.47;2.75;;;25.50;45.80;;;;;;5170796;27;45293;-75
2022/08/23 08:28:46;;;;;;;3.25;2.58;;;25.50;45.90;;;;;;5170989;27;45229;-75
2022/08/23 08:31:14;;;;;;;3.50;2.50;;;25.50;46.10;;;;;;5170560;27;45220;-75
2022/08/23 08:33:41;;;;;;;4.15;2.55;;;25.50;46.40;;;;;;5170343;27;45262;-73
2022/08/23 08:36:08;;;;;;;3.03;2.63;;;25.50;46.50;;;;;;5170524;27;45360;-73
2022/08/23 08:38:38;;;;;;;3.10;2.40;;;25.60;46.60;;;;;;5170585;27;45251;-73
2022/08/23 08:41:09;;;;;;;2.60;2.25;;;25.50;46.20;;;;;;5170319;27;45283;-73
2022/08/23 08:43:47;;;;;;;4.40;2.50;;;25.60;46.20;;;;;;5170119;27;45305;-73
2022/08/23 08:46:19;;;;;;;2.97;2.40;;;25.60;46.10;;;;;;5170470;27;45244;-74
2022/08/23 08:48:46;;;;;;;2.80;2.40;;;25.60;45.90;;;;;;5170561;27;45234;-75
2022/08/23 08:51:25;;;;;;;3.65;2.78;;;25.70;46.10;;;;;;5169932;27;46422;-73
2022/08/23 08:53:52;;;;;;;3.80;2.55;;;25.80;46.10;;;;;;5170135;27;45204;-74
2022/08/23 08:56:21;;;;;;;3.63;2.58;;;25.80;46.60;;;;;;5170423;27;45240;-75
2022/08/23 08:58:49;;;;;;;3.08;2.45;;;25.80;46.80;;;;;;5170437;27;45645;-74
2022/08/23 09:01:18;;;;;;;4.60;2.70;;;25.80;46.40;;;;;;5170159;27;45310;-74
2022/08/23 09:03:44;;;;;;;4.05;2.50;;;25.80;46.20;;;;;;5170051;27;45320;-74
2022/08/23 09:06:21;;;;;;;3.30;2.75;;;25.90;46.10;;;;;;5170288;27;45312;-75
2022/08/23 09:09:03;;;;;;;3.15;2.65;;;25.90;46.70;;;;;;5170577;27;45280;-75
2022/08/23 09:11:38;;;;;;;2.67;2.45;;;25.90;45.90;;;;;;5170061;27;45472;-75
2022/08/23 09:14:32;;;;;;;3.20;2.40;;;26.00;46.00;;;;;;5169619;27;45298;-75
2022/08/23 09:17:02;;;;;;;3.70;2.53;;;26.00;45.70;;;;;;5170253;27;45412;-75
2022/08/23 09:19:29;;;;;;;2.67;2.47;;;26.00;45.60;;;;;;5170333;27;45596;-75
2022/08/23 09:21:56;;;;;;;4.13;2.53;;;26.10;45.60;;;;;;5167465;27;45335;-74
2022/08/23 09:24:24;;;;;;;2.97;2.67;;;26.10;45.50;;;;;;5169593;27;45475;-74
2022/08/23 09:26:52;;;;;;;2.95;2.28;;;26.20;45.50;;;;;;5170018;27;45319;-74
2022/08/23 09:29:21;;;;;;;3.13;2.50;;;26.20;45.40;;;;;;5169999;27;45413;-74
2022/08/23 09:31:51;;;;;;;3.25;2.47;;;26.20;46.10;;;;;;5127939;27;46675;-75
2022/08/23 09:34:21;;;;;;;5.32;2.50;;;26.30;45.50;;;;;;5127643;27;45335;-74
2022/08/23 09:36:47;;;;;;;3.08;2.78;;;26.30;45.70;;;;;;5127488;27;45430;-75
2022/08/23 09:39:26;;;;;;;2.97;2.63;;;26.40;45.20;;;;;;5124600;27;45285;-74
2022/08/23 09:41:53;;;;;;;3.35;2.65;;;26.40;44.80;;;;;;5127042;27;46514;-76
2022/08/23 09:44:33;;;;;;;5.40;2.88;;;26.40;44.90;;;;;;5127440;27;45191;-74
2022/08/23 09:47:05;;;;;;;3.33;2.50;;;26.40;44.70;;;;;;5127231;27;45293;-75
2022/08/23 09:49:33;;;;;;;4.68;2.25;;;26.50;44.60;;;;;;5127669;27;45304;-74
2022/08/23 09:52:01;;;;;;;3.42;2.40;;;26.50;44.50;;;;;;5127210;27;45379;-75
2022/08/23 09:54:29;;;;;;;5.20;2.47;;;26.50;44.60;;;;;;5127553;27;45295;-75
2022/08/23 09:56:58;;;;;;;2.90;2.40;;;26.60;44.40;;;;;;5127646;27;45168;-75
2022/08/23 09:59:34;;;;;;;3.88;2.83;;;26.70;44.60;;;;;;5127793;27;45613;-75
2022/08/23 10:02:00;;;;;;;3.40;2.80;;;26.70;44.50;;;;;;5127531;27;46391;-75
2022/08/23 10:04:31;;;;;;;2.90;2.60;;;26.80;44.40;;;;;;5127511;27;45419;-75
2022/08/23 10:07:01;;;;;;;2.97;2.47;;;26.80;44.40;;;;;;5135060;27;45182;-75
2022/08/23 10:09:29;;;;;;;3.60;2.38;;;26.80;44.20;;;;;;5148605;27;45302;-75
2022/08/23 10:11:56;;;;;;;2.72;2.40;;;26.90;44.30;;;;;;5148219;27;45471;-74
2022/08/23 10:14:24;;;;;;;4.15;2.60;;;26.90;44.20;;;;;;5148135;27;45193;-74
2022/08/23 10:17:07;;;;;;;5.35;2.67;;;27.00;44.10;;;;;;5148471;27;45299;-75
2022/08/23 10:19:38;;;;;;;2.95;2.40;;;27.00;43.90;;;;;;5148219;27;45276;-75
2022/08/23 10:22:10;;;;;;;3.20;2.40;;;27.10;43.90;;;;;;5147624;27;45228;-75
2022/08/23 10:24:39;;;;;;;2.78;2.35;;;27.10;43.70;;;;;;5148381;27;45259;-74
2022/08/23 10:30:13;;;;;;;2.42;2.20;;;27.20;43.60;;;;;;5152357;27;45209;-74
2022/08/23 10:32:47;;;;;;;4.15;2.65;;;27.30;43.40;;;;;;5151218;27;46396;-74
2022/08/23 10:35:28;;;;;;;4.03;2.42;;;27.30;43.10;;;;;;5151527;27;45430;-75
2022/08/23 10:38:03;;;;;;;2.75;2.20;;;27.30;42.70;;;;;;5166849;27;45231;-75
2022/08/23 10:40:31;;;;;;;5.38;2.40;;;27.40;42.40;;;;;;5172621;27;45201;-75
2022/08/23 10:43:07;;;;;;;3.78;2.58;;;27.40;42.20;;;;;;5169569;27;45250;-74
2022/08/23 10:45:36;;;;;;;2.53;2.10;;;27.50;43.10;;;;;;5172481;27;45278;-75
2022/08/23 10:48:12;;;;;;;3.60;2.35;;;27.50;42.40;;;;;;5172341;27;45244;-74
2022/08/23 10:50:42;;;;;;;3.83;2.38;;;27.60;42.40;;;;;;5173491;27;45217;-74
2022/08/23 10:53:12;;;;;;;3.10;2.60;;;27.60;42.00;;;;;;5172391;27;45442;-74
2022/08/23 10:55:53;;;;;;;4.38;2.40;;;27.70;42.10;;;;;;5174703;27;45289;-75
2022/08/23 10:58:22;;;;;;;2.78;2.22;;;27.70;42.00;;;;;;5172542;27;45261;-74
2022/08/23 11:00:49;;;;;;;3.00;2.58;;;27.80;41.80;;;;;;5172977;27;45198;-75
2022/08/23 11:03:21;;;;;;;3.38;2.30;;;27.80;41.50;;;;;;5172093;27;46380;-73
2022/08/23 11:06:21;;;;;;;3.95;2.60;;;27.90;41.70;;;;;;5172111;27;45278;-72
2022/08/23 11:08:57;;;;;;;5.28;2.35;;;27.90;41.70;;;;;;5130290;27;45268;-75
2022/08/23 11:11:42;;;;;;;3.40;2.53;;;28.00;41.50;;;;;;5130770;27;45256;-74
2022/08/23 11:14:09;;;;;;;4.20;2.30;;;28.10;41.10;;;;;;5128402;27;47553;-74
2022/08/23 11:16:37;;;;;;;3.53;2.15;;;28.10;41.00;;;;;;5131024;27;45245;-74
2022/08/23 11:19:04;;;;;;;3.25;2.70;;;28.20;40.40;;;;;;5131384;27;45237;-74
2022/08/23 11:21:49;;;;;;;2.88;2.40;;;28.20;40.80;;;;;;5133470;27;45253;-74
2022/08/23 11:24:32;;;;;;;3.15;2.60;;;28.30;40.60;;;;;;5131411;27;45279;-74
2022/08/23 11:27:04;;;;;;;2.97;2.40;;;28.30;40.00;;;;;;5132369;27;45299;-75
2022/08/23 11:29:32;;;;;;;2.38;2.17;;;28.40;40.10;;;;;;5132738;27;45286;-75
2022/08/23 11:32:19;;;;;;;3.03;2.30;;;28.50;40.10;;;;;;5171885;27;45278;-74
2022/08/23 11:34:49;;;;;;;3.95;2.58;;;28.50;39.50;;;;;;5171659;27;46667;-75
2022/08/23 11:37:31;;;;;;;2.58;2.38;;;28.60;39.60;;;;;;5169977;27;45289;-74
2022/08/23 11:40:09;;;;;;;3.15;2.08;;;28.60;39.80;;;;;;5171585;27;45188;-74
2022/08/23 11:42:48;;;;;;;2.65;2.45;;;28.70;39.00;;;;;;5172149;27;45300;-75
2022/08/23 11:45:32;;;;;;;3.00;2.15;;;28.80;39.10;;;;;;5172791;27;46369;-75
2022/08/23 11:48:11;;;;;;;3.65;2.30;;;28.80;38.80;;;;;;5172610;27;45294;-75
2022/08/23 11:50:52;;;;;;;2.30;2.10;;;28.90;38.80;;;;;;5172353;27;45250;-74
2022/08/23 11:53:25;;;;;;;3.63;2.30;;;29.00;38.80;;;;;;5169271;27;45392;-74
2022/08/23 11:56:04;;;;;;;3.92;2.58;;;29.10;38.90;;;;;;5172768;27;46484;-75
2022/08/23 11:58:34;;;;;;;3.45;2.58;;;29.10;38.50;;;;;;5171565;27;45203;-75
2022/08/23 12:01:06;;;;;;;2.50;2.30;;;29.20;38.10;;;;;;5171400;27;45323;-74
2022/08/23 12:03:35;;;;;;;2.95;2.30;;;29.20;37.50;;;;;;5172339;27;45330;-75
2022/08/23 12:06:14;;;;;;;2.50;2.30;;;29.20;37.40;;;;;;5171554;27;45519;-75
2022/08/23 12:08:50;;;;;;;3.63;2.50;;;29.30;38.10;;;;;;5129738;27;45299;-75
2022/08/23 12:11:18;;;;;;;3.60;2.17;;;29.40;37.40;;;;;;5129705;27;45203;-76
2022/08/23 12:14:00;;;;;;;3.17;2.88;;;29.40;37.30;;;;;;5130183;27;45403;-76
2022/08/23 12:16:33;;;;;;;4.30;2.50;;;29.50;37.10;;;;;;5129135;27;46943;-76
2022/08/23 12:19:01;;;;;;;5.00;2.55;;;29.50;37.20;;;;;;5129120;27;45257;-76
2022/08/23 12:21:31;;;;;;;2.78;2.30;;;29.50;37.20;;;;;;5145016;27;45330;-76
2022/08/23 12:24:00;;;;;;;4.78;2.30;;;29.50;37.90;;;;;;5153037;27;45328;-75
2022/08/23 12:26:30;;;;;;;3.58;2.55;;;29.50;37.40;;;;;;5150673;27;46556;-76
2022/08/23 12:28:58;;;;;;;3.95;2.50;;;29.50;37.50;;;;;;5149533;27;45301;-76
2022/08/23 12:31:29;;;;;;;3.70;2.60;;;29.50;37.60;;;;;;5131841;27;45240;-75
2022/08/23 12:34:12;;;;;;;3.53;2.13;;;29.60;37.60;;;;;;5128913;27;45446;-75
2022/08/23 12:36:41;;;;;;;3.15;2.20;;;29.60;37.60;;;;;;5126088;27;46587;-75
2022/08/23 12:39:14;;;;;;;2.67;2.25;;;29.70;37.50;;;;;;5128552;27;45302;-75
2022/08/23 12:41:52;;;;;;;3.92;2.20;;;29.80;37.60;;;;;;5128926;27;45299;-74
2022/08/23 12:44:20;;;;;;;3.63;2.20;;;29.90;37.60;;;;;;5128022;27;45366;-75
2022/08/23 12:46:48;;;;;;;3.45;2.60;;;29.90;37.70;;;;;;5128537;27;46365;-76
2022/08/23 12:49:23;;;;;;;4.13;2.33;;;30.00;37.90;;;;;;5128113;27;45344;-75
2022/08/23 12:51:51;;;;;;;5.30;2.50;;;30.00;38.00;;;;;;5128769;27;45321;-76
2022/08/23 12:54:24;;;;;;;5.20;2.40;;;30.10;38.00;;;;;;5125862;27;45267;-76
2022/08/23 12:56:54;;;;;;;2.35;2.15;;;30.20;37.90;;;;;;5126022;27;46560;-74
2022/08/23 12:59:33;;;;;;;2.83;2.38;;;30.30;38.10;;;;;;5128512;27;45239;-74
2022/08/23 13:02:01;;;;;;;3.05;2.40;;;30.30;37.90;;;;;;5128557;27;45256;-75
2022/08/23 13:04:28;;;;;;;2.95;2.42;;;30.40;38.00;;;;;;5125935;27;45362;-75
2022/08/23 13:06:58;;;;;;;4.45;2.20;;;30.50;38.10;;;;;;5121125;27;46431;-75